createdAt,value
2023-01-28T00:02:00.371Z,15.33
2023-01-28T00:04:33.174Z,15.62
2023-01-28T00:06:59.802Z,16.76
2023-01-28T00:09:27.783Z,17.73
2023-01-28T00:11:54.261Z,17.88
2023-01-28T00:14:20.681Z,17.82
2023-01-28T00:16:47.344Z,18.05
2023-01-28T00:19:13.824Z,17.83
2023-01-28T00:21:41.566Z,16.82
2023-01-28T00:24:08.061Z,15.46
2023-01-28T00:26:34.545Z,13.77
2023-01-28T00:29:01.037Z,13.65
2023-01-28T00:31:27.632Z,12.98
2023-01-28T00:33:54.150Z,13.44
2023-01-28T00:36:20.714Z,12.80
2023-01-28T00:38:47.159Z,13.34
2023-01-28T00:41:13.602Z,13.63
2023-01-28T00:43:40.065Z,13.25
2023-01-28T00:46:06.482Z,14.03
2023-01-28T00:48:32.937Z,13.77
2023-01-28T00:50:59.363Z,13.36
2023-01-28T00:53:25.713Z,13.21
2023-01-28T00:55:52.147Z,13.67
2023-01-28T00:58:18.566Z,14.27
2023-01-28T01:00:44.945Z,14.12
2023-01-28T01:03:11.407Z,13.88
2023-01-28T01:05:37.836Z,14.14
2023-01-28T01:08:04.304Z,14.52
2023-01-28T01:10:30.721Z,14.49
2023-01-28T01:12:57.149Z,14.87
2023-01-28T01:15:23.612Z,15.13
2023-01-28T01:17:50.388Z,15.26
2023-01-28T01:20:16.797Z,14.83
2023-01-28T01:25:23.571Z,15.09
2023-01-28T01:27:50.057Z,15.20
2023-01-28T01:30:16.473Z,15.65
2023-01-28T01:32:42.893Z,15.43
2023-01-28T01:35:09.344Z,15.18
2023-01-28T01:37:35.747Z,15.48
2023-01-28T01:40:02.204Z,16.38
2023-01-28T01:42:30.004Z,16.88
2023-01-28T01:44:56.431Z,16.71
2023-01-28T01:47:22.870Z,16.55
2023-01-28T01:49:49.327Z,16.52
2023-01-28T01:52:15.760Z,16.26
2023-01-28T01:54:42.092Z,16.75
2023-01-28T01:57:17.752Z,19.31
2023-01-28T01:59:44.277Z,26.43
2023-01-28T02:02:10.795Z,20.99
2023-01-28T02:04:37.307Z,15.90
2023-01-28T02:07:03.852Z,16.94
2023-01-28T02:09:30.347Z,18.71
2023-01-28T02:11:56.770Z,23.03
2023-01-28T02:14:30.822Z,24.24
2023-01-28T02:16:57.657Z,20.37
2023-01-28T02:19:24.149Z,17.72
2023-01-28T02:21:50.504Z,17.38
2023-01-28T02:24:16.948Z,17.15
2023-01-28T02:26:43.401Z,17.30
2023-01-28T02:29:11.967Z,17.40
2023-01-28T02:31:38.518Z,17.88
2023-01-28T02:34:05.072Z,17.44
2023-01-28T02:36:31.459Z,17.79
2023-01-28T02:38:57.988Z,17.71
2023-01-28T02:41:24.383Z,17.69
2023-01-28T02:43:50.768Z,17.66
2023-01-28T02:46:17.228Z,17.95
2023-01-28T02:48:43.697Z,17.44
2023-01-28T02:51:10.208Z,17.74
2023-01-28T02:53:36.685Z,16.64
2023-01-28T02:56:03.123Z,17.64
2023-01-28T02:58:29.613Z,17.69
2023-01-28T03:00:56.037Z,17.79
2023-01-28T03:03:22.457Z,17.44
2023-01-28T03:05:48.889Z,17.12
2023-01-28T03:08:15.266Z,17.68
2023-01-28T03:10:41.703Z,17.30
2023-01-28T03:13:08.133Z,17.21
2023-01-28T03:15:34.548Z,17.54
2023-01-28T03:18:00.955Z,17.42
2023-01-28T03:20:27.370Z,17.41
2023-01-28T03:22:53.807Z,17.64
2023-01-28T03:25:20.159Z,17.31
2023-01-28T03:27:46.640Z,18.30
2023-01-28T03:30:13.036Z,18.34
2023-01-28T03:32:39.459Z,18.15
2023-01-28T03:35:05.887Z,17.30
2023-01-28T03:37:32.300Z,18.59
2023-01-28T03:39:58.731Z,17.81
2023-01-28T03:42:25.290Z,17.97
2023-01-28T03:44:51.741Z,17.84
2023-01-28T03:47:18.221Z,17.59
2023-01-28T03:49:44.672Z,17.54
2023-01-28T03:52:11.152Z,17.55
2023-01-28T03:54:37.534Z,17.59
2023-01-28T03:57:03.911Z,18.13
2023-01-28T03:59:30.405Z,17.34
2023-01-28T04:01:56.935Z,17.41
2023-01-28T04:04:23.417Z,16.93
2023-01-28T04:06:49.845Z,17.04
2023-01-28T04:09:16.287Z,16.76
2023-01-28T04:11:42.889Z,17.44
2023-01-28T04:16:49.749Z,16.55
2023-01-28T04:19:16.431Z,16.37
2023-01-28T04:21:43.816Z,16.96
2023-01-28T04:24:10.211Z,16.31
2023-01-28T04:26:36.589Z,16.88
2023-01-28T04:29:03.089Z,16.67
2023-01-28T04:31:29.666Z,16.51
2023-01-28T04:33:56.133Z,16.25
2023-01-28T04:36:22.564Z,16.00
2023-01-28T04:38:49.035Z,16.46
2023-01-28T04:41:15.485Z,16.42
2023-01-28T04:43:41.947Z,16.33
2023-01-28T04:46:08.390Z,16.71
2023-01-28T04:48:34.824Z,16.42
2023-01-28T04:51:01.274Z,16.42
2023-01-28T04:53:27.864Z,16.97
2023-01-28T04:55:54.307Z,16.72
2023-01-28T04:58:20.763Z,17.22
2023-01-28T05:00:47.277Z,17.22
2023-01-28T05:03:13.941Z,16.94
2023-01-28T05:05:40.403Z,16.53
2023-01-28T05:08:06.810Z,16.31
2023-01-28T05:10:33.238Z,16.15
2023-01-28T05:12:59.669Z,16.67
2023-01-28T05:15:26.116Z,16.83
2023-01-28T05:17:52.634Z,16.76
2023-01-28T05:20:19.044Z,17.20
2023-01-28T05:22:45.466Z,17.12
2023-01-28T05:25:11.970Z,16.47
2023-01-28T05:27:38.425Z,16.50
2023-01-28T05:30:04.809Z,16.21
2023-01-28T05:32:31.290Z,16.20
2023-01-28T05:34:57.751Z,16.19
2023-01-28T05:37:24.157Z,15.90
2023-01-28T05:39:50.571Z,16.14
2023-01-28T05:42:16.947Z,15.91
2023-01-28T05:44:43.430Z,15.98
2023-01-28T05:47:09.949Z,16.10
2023-01-28T05:49:36.345Z,16.14
2023-01-28T05:52:02.728Z,17.14
2023-01-28T05:54:29.124Z,22.52
2023-01-28T05:56:55.571Z,27.23
2023-01-28T05:59:22.007Z,18.13
2023-01-28T06:01:48.460Z,16.40
2023-01-28T06:04:14.951Z,16.70
2023-01-28T06:06:41.453Z,15.85
2023-01-28T06:09:07.868Z,16.75
2023-01-28T06:11:34.285Z,16.91
2023-01-28T06:14:00.698Z,16.65
2023-01-28T06:16:27.108Z,16.30
2023-01-28T06:18:53.512Z,16.35
2023-01-28T06:21:19.943Z,16.82
2023-01-28T06:23:46.391Z,16.74
2023-01-28T06:26:12.810Z,16.81
2023-01-28T06:28:39.197Z,16.79
2023-01-28T06:31:05.634Z,17.44
2023-01-28T06:33:32.073Z,18.55
2023-01-28T06:35:58.464Z,17.92
2023-01-28T06:38:24.936Z,19.74
2023-01-28T06:40:51.362Z,18.98
2023-01-28T06:43:17.798Z,17.56
2023-01-28T06:45:44.227Z,17.53
2023-01-28T06:48:10.663Z,16.78
2023-01-28T06:50:37.039Z,15.70
2023-01-28T06:53:03.509Z,15.88
2023-01-28T06:55:29.911Z,15.37
2023-01-28T06:57:56.319Z,15.63
2023-01-28T07:00:22.736Z,15.73
2023-01-28T07:02:49.194Z,15.15
2023-01-28T07:05:15.660Z,15.14
2023-01-28T07:07:42.383Z,15.99
2023-01-28T07:10:08.853Z,15.72
2023-01-28T07:12:35.282Z,15.69
2023-01-28T07:15:01.741Z,15.91
2023-01-28T07:17:28.251Z,15.73
2023-01-28T07:19:54.748Z,15.25
2023-01-28T07:22:21.217Z,15.63
2023-01-28T07:24:47.676Z,15.89
2023-01-28T07:27:14.162Z,16.21
2023-01-28T07:29:40.673Z,15.89
2023-01-28T07:32:08.260Z,17.03
2023-01-28T07:34:34.713Z,17.81
2023-01-28T07:37:01.368Z,17.09
2023-01-28T07:39:27.842Z,16.37
2023-01-28T07:41:54.250Z,16.30
2023-01-28T07:47:12.302Z,16.72
2023-01-28T07:49:38.998Z,17.58
2023-01-28T07:52:05.337Z,16.73
2023-01-28T07:54:33.913Z,16.72
2023-01-28T07:57:00.615Z,16.84
2023-01-28T07:59:27.068Z,17.42
2023-01-28T08:01:55.001Z,17.21
2023-01-28T08:04:23.701Z,17.92
2023-01-28T08:06:54.482Z,17.36
2023-01-28T08:09:20.993Z,17.85
2023-01-28T08:11:47.429Z,18.12
2023-01-28T08:14:13.974Z,17.82
2023-01-28T08:16:40.472Z,18.62
2023-01-28T08:19:14.069Z,17.72
2023-01-28T08:21:40.521Z,16.93
2023-01-28T08:24:10.483Z,17.77
2023-01-28T08:26:36.958Z,17.24
2023-01-28T08:29:03.354Z,17.95
2023-01-28T08:31:29.907Z,17.20
2023-01-28T08:34:05.129Z,17.55
2023-01-28T08:36:32.717Z,18.14
2023-01-28T08:39:00.150Z,18.47
2023-01-28T08:41:26.596Z,18.21
2023-01-28T08:43:53.042Z,18.56
2023-01-28T08:46:19.465Z,18.42
2023-01-28T08:48:45.980Z,17.75
2023-01-28T08:51:12.392Z,17.44
2023-01-28T08:53:38.898Z,17.44
2023-01-28T08:56:05.398Z,17.07
2023-01-28T08:58:34.772Z,17.10
2023-01-28T09:01:01.214Z,17.88
2023-01-28T09:03:28.017Z,18.24
2023-01-28T09:05:54.416Z,18.08
2023-01-28T09:08:20.880Z,19.59
2023-01-28T09:10:47.325Z,20.22
2023-01-28T09:13:13.734Z,18.94
2023-01-28T09:15:40.300Z,18.66
2023-01-28T09:18:06.854Z,18.66
2023-01-28T09:20:33.351Z,18.56
2023-01-28T09:22:59.813Z,18.72
2023-01-28T09:25:26.332Z,18.97
2023-01-28T09:27:52.797Z,18.51
2023-01-28T09:30:19.264Z,19.64
2023-01-28T09:32:45.705Z,18.76
2023-01-28T09:35:12.130Z,18.79
2023-01-28T09:37:41.431Z,18.97
2023-01-28T09:40:07.922Z,17.59
2023-01-28T09:42:34.526Z,19.50
2023-01-28T09:45:07.153Z,19.76
2023-01-28T09:47:35.774Z,19.73
2023-01-28T09:50:02.273Z,19.41
2023-01-28T09:52:28.861Z,19.73
2023-01-28T09:54:55.300Z,20.26
2023-01-28T09:57:21.791Z,19.41
2023-01-28T09:59:48.259Z,19.93
2023-01-28T10:02:14.701Z,20.33
2023-01-28T10:04:41.243Z,20.62
2023-01-28T10:07:07.691Z,20.07
2023-01-28T10:12:19.379Z,19.48
2023-01-28T10:14:45.829Z,21.28
2023-01-28T10:17:12.297Z,20.67
2023-01-28T10:19:38.734Z,20.76
2023-01-28T10:22:05.144Z,20.10
2023-01-28T10:24:31.588Z,20.09
2023-01-28T10:26:58.036Z,25.45
2023-01-28T10:29:24.433Z,24.44
2023-01-28T10:31:50.976Z,20.54
2023-01-28T10:34:19.980Z,20.22
2023-01-28T10:36:46.550Z,29.13
2023-01-28T10:39:13.057Z,21.62
2023-01-28T10:41:48.506Z,19.45
2023-01-28T10:44:23.310Z,20.39
2023-01-28T10:46:49.730Z,20.18
2023-01-28T10:49:16.275Z,20.17
2023-01-28T10:51:44.098Z,20.02
2023-01-28T10:54:14.753Z,20.51
2023-01-28T10:56:43.628Z,21.06
2023-01-28T10:59:10.117Z,20.84
2023-01-28T11:04:17.041Z,21.30
2023-01-28T11:06:43.573Z,21.03
2023-01-28T11:09:10.021Z,21.19
2023-01-28T11:11:36.489Z,21.75
2023-01-28T11:14:03.008Z,21.42
2023-01-28T11:16:36.705Z,21.74
2023-01-28T11:19:03.190Z,21.80
2023-01-28T11:21:29.819Z,21.49
2023-01-28T11:23:59.022Z,22.28
2023-01-28T11:26:26.003Z,21.57
2023-01-28T11:28:52.534Z,22.24
2023-01-28T11:31:19.070Z,22.69
2023-01-28T11:33:45.539Z,22.40
2023-01-28T11:36:12.112Z,23.19
2023-01-28T11:38:38.714Z,22.43
2023-01-28T11:41:05.203Z,23.30
2023-01-28T11:43:31.621Z,23.36
2023-01-28T11:46:03.987Z,24.20
2023-01-28T11:48:33.387Z,23.45
2023-01-28T11:50:59.803Z,23.64
2023-01-28T11:53:26.524Z,23.40
2023-01-28T11:55:53.100Z,23.43
2023-01-28T11:58:19.795Z,23.50
2023-01-28T12:00:49.785Z,23.61
2023-01-28T12:03:16.261Z,22.41
2023-01-28T12:05:42.787Z,21.99
2023-01-28T12:08:09.455Z,21.96
2023-01-28T12:10:35.893Z,20.95
2023-01-28T12:13:03.665Z,21.22
2023-01-28T12:15:30.377Z,20.56
2023-01-28T12:17:56.909Z,20.40
2023-01-28T12:20:23.374Z,20.74
2023-01-28T12:22:49.912Z,20.50
2023-01-28T12:25:16.406Z,20.37
2023-01-28T12:27:42.879Z,20.92
2023-01-28T12:30:09.402Z,20.64
2023-01-28T12:32:35.987Z,20.36
2023-01-28T12:35:02.624Z,20.29
2023-01-28T12:37:29.081Z,20.80
2023-01-28T12:39:56.524Z,21.10
2023-01-28T12:45:15.568Z,19.76
2023-01-28T12:47:49.345Z,20.41
2023-01-28T12:50:16.184Z,20.18
2023-01-28T12:55:24.110Z,19.99
2023-01-28T12:57:56.578Z,20.06
2023-01-28T13:00:23.984Z,19.18
2023-01-28T13:02:50.544Z,19.44
2023-01-28T13:05:16.986Z,20.58
2023-01-28T13:07:43.465Z,20.29
2023-01-28T13:10:09.930Z,20.02
2023-01-28T13:12:36.406Z,22.21
2023-01-28T13:15:04.148Z,19.90
2023-01-28T13:17:30.633Z,19.68
2023-01-28T13:19:57.191Z,19.81
2023-01-28T13:22:23.747Z,19.28
2023-01-28T13:24:51.279Z,19.72
2023-01-28T13:27:17.747Z,19.70
2023-01-28T13:29:44.227Z,21.65
2023-01-28T13:32:10.733Z,20.70
2023-01-28T13:34:37.234Z,19.99
2023-01-28T13:37:05.827Z,19.77
2023-01-28T13:39:32.509Z,19.77
2023-01-28T13:41:59.541Z,20.00
2023-01-28T13:44:30.900Z,20.16
2023-01-28T13:46:57.411Z,19.43
2023-01-28T13:49:24.016Z,19.56
2023-01-28T13:51:50.617Z,19.79
2023-01-28T13:54:17.044Z,20.31
2023-01-28T13:56:43.552Z,20.08
2023-01-28T13:59:10.022Z,20.24
2023-01-28T14:01:36.558Z,20.13
2023-01-28T14:04:03.031Z,20.33
2023-01-28T14:06:33.451Z,20.31
2023-01-28T14:09:00.425Z,20.09
2023-01-28T14:11:26.882Z,20.39
2023-01-28T14:13:53.319Z,20.50
2023-01-28T14:16:19.941Z,20.21
2023-01-28T14:18:48.570Z,20.83
2023-01-28T14:21:16.294Z,21.48
2023-01-28T14:23:42.951Z,20.43
2023-01-28T14:26:09.613Z,20.78
2023-01-28T14:28:45.766Z,19.52
2023-01-28T14:31:12.320Z,19.90
2023-01-28T14:33:38.941Z,20.25
2023-01-28T14:36:05.471Z,20.26
2023-01-28T14:38:33.002Z,20.47
2023-01-28T14:41:01.820Z,19.61
2023-01-28T14:43:28.209Z,20.15
2023-01-28T14:45:55.664Z,20.15
2023-01-28T14:48:31.235Z,19.43
2023-01-28T14:50:57.651Z,19.76
2023-01-28T14:56:05.775Z,19.52
2023-01-28T14:58:32.257Z,19.38
2023-01-28T15:00:58.657Z,18.81
2023-01-28T15:03:26.062Z,18.94
2023-01-28T15:05:53.585Z,19.23
2023-01-28T15:08:20.049Z,19.20
2023-01-28T15:10:46.494Z,18.74
2023-01-28T15:13:12.898Z,19.01
2023-01-28T15:15:39.324Z,18.67
2023-01-28T15:18:05.851Z,18.69
2023-01-28T15:20:32.674Z,19.71
2023-01-28T15:23:01.323Z,20.78
2023-01-28T15:25:27.885Z,20.36
2023-01-28T15:27:54.325Z,20.17
2023-01-28T15:30:20.764Z,20.44
2023-01-28T15:32:47.234Z,20.55
2023-01-28T15:35:13.795Z,20.48
2023-01-28T15:37:40.301Z,20.43
2023-01-28T15:40:06.790Z,20.53
2023-01-28T15:42:33.281Z,20.53
2023-01-28T15:44:59.731Z,20.16
2023-01-28T15:47:26.274Z,19.92
2023-01-28T15:49:55.792Z,19.94
2023-01-28T15:52:22.283Z,19.98
2023-01-28T15:54:48.814Z,20.10
2023-01-28T15:57:15.336Z,20.16
2023-01-28T15:59:41.864Z,19.85
2023-01-28T16:02:08.292Z,20.24
2023-01-28T16:04:35.053Z,19.60
2023-01-28T16:07:02.006Z,19.45
2023-01-28T16:09:28.409Z,19.22
2023-01-28T16:11:54.934Z,37.38
2023-01-28T16:14:21.484Z,44.02
2023-01-28T16:16:51.790Z,29.28
2023-01-28T16:19:18.297Z,22.10
2023-01-28T16:21:44.775Z,21.21
2023-01-28T16:24:11.247Z,19.66
2023-01-28T16:26:37.894Z,19.47
2023-01-28T16:29:04.507Z,19.63
2023-01-28T16:31:31.049Z,19.49
2023-01-28T16:33:57.591Z,18.80
2023-01-28T16:36:24.051Z,18.82
2023-01-28T16:38:50.440Z,19.39
2023-01-28T16:41:16.933Z,18.16
2023-01-28T16:43:45.626Z,17.31
2023-01-28T16:46:12.035Z,17.48
2023-01-28T16:48:38.484Z,16.67
2023-01-28T16:51:04.903Z,17.02
2023-01-28T16:53:31.371Z,16.73
2023-01-28T16:55:57.777Z,18.72
2023-01-28T16:58:31.650Z,18.56
2023-01-28T17:00:58.112Z,17.78
2023-01-28T17:03:24.720Z,17.35
2023-01-28T17:05:51.300Z,17.03
2023-01-28T17:08:24.773Z,19.56
2023-01-28T17:10:58.387Z,21.33
2023-01-28T17:13:29.800Z,19.13
2023-01-28T17:16:26.811Z,17.85
2023-01-28T17:19:06.307Z,17.63
2023-01-28T17:22:05.276Z,16.38
2023-01-28T17:32:45.806Z,35.18
2023-01-28T17:38:03.322Z,16.87
2023-01-28T17:40:30.932Z,16.61
2023-01-28T17:43:57.768Z,18.58
2023-01-28T17:45:47.598Z,16.96
2023-01-28T17:50:57.122Z,16.72
2023-01-28T17:53:23.687Z,21.22
2023-01-28T17:55:50.125Z,17.89
2023-01-28T17:58:17.959Z,15.55
2023-01-28T18:00:44.546Z,16.31
2023-01-28T18:03:11.284Z,16.72
2023-01-28T18:05:37.816Z,15.92
2023-01-28T18:08:04.306Z,15.76
2023-01-28T18:10:30.778Z,14.97
2023-01-28T18:13:01.029Z,15.62
2023-01-28T18:15:29.586Z,16.46
2023-01-28T18:17:56.167Z,15.37
2023-01-28T18:20:22.618Z,14.84
2023-01-28T18:22:49.368Z,15.34
2023-01-28T18:25:16.342Z,15.66
2023-01-28T18:27:43.132Z,14.41
2023-01-28T18:30:09.669Z,14.80
2023-01-28T18:32:36.153Z,16.31
2023-01-28T18:35:06.486Z,18.78
2023-01-28T18:37:33.011Z,18.92
2023-01-28T18:39:59.511Z,15.99
2023-01-28T18:42:25.990Z,16.88
2023-01-28T18:44:56.779Z,17.19
2023-01-28T18:47:24.307Z,16.75
2023-01-28T18:49:50.958Z,16.85
2023-01-28T18:52:17.513Z,16.95
2023-01-28T18:54:44.075Z,16.65
2023-01-28T18:57:10.562Z,16.28
2023-01-28T19:02:22.922Z,15.71
2023-01-28T19:04:49.439Z,15.08
2023-01-28T19:07:17.341Z,15.47
2023-01-28T19:09:43.887Z,15.70
2023-01-28T19:12:10.510Z,15.50
2023-01-28T19:14:39.108Z,15.27
2023-01-28T19:17:12.228Z,15.88
2023-01-28T19:19:38.739Z,15.17
2023-01-28T19:22:05.273Z,14.58
2023-01-28T19:24:31.863Z,14.60
2023-01-28T19:26:58.534Z,14.58
2023-01-28T19:32:09.487Z,14.25
2023-01-28T19:34:38.788Z,15.12
2023-01-28T19:37:08.304Z,15.12
2023-01-28T19:45:06.152Z,14.03
2023-01-28T19:47:32.785Z,15.00
2023-01-28T19:49:59.370Z,14.65
2023-01-28T19:52:25.903Z,14.88
2023-01-28T19:54:52.365Z,14.49
2023-01-28T19:57:18.827Z,15.10
2023-01-28T19:59:45.306Z,17.26
2023-01-28T20:02:11.867Z,16.14
2023-01-28T20:04:47.502Z,15.45
2023-01-28T20:07:21.568Z,14.65
2023-01-28T20:09:48.075Z,15.07
2023-01-28T20:12:15.811Z,14.71
2023-01-28T20:14:43.356Z,15.57
2023-01-28T20:17:09.888Z,15.18
2023-01-28T20:19:36.511Z,15.22
2023-01-28T20:22:02.977Z,14.84
2023-01-28T20:24:29.513Z,15.26
2023-01-28T20:26:56.032Z,14.76
2023-01-28T20:29:22.529Z,14.84
2023-01-28T20:32:01.070Z,14.61
2023-01-28T20:34:35.621Z,15.17
2023-01-28T20:37:02.142Z,15.45
2023-01-28T20:39:31.695Z,14.80
2023-01-28T20:42:00.629Z,14.68
2023-01-28T20:44:27.179Z,16.39
2023-01-28T20:47:01.114Z,15.46
2023-01-28T20:49:28.231Z,15.81
2023-01-28T20:51:55.831Z,16.02
2023-01-28T20:54:24.875Z,15.38
2023-01-28T20:56:53.574Z,15.24
2023-01-28T20:59:26.389Z,16.66
2023-01-28T21:01:54.141Z,15.86
2023-01-28T21:04:20.800Z,16.72
2023-01-28T21:06:47.434Z,16.37
2023-01-28T21:09:21.277Z,16.17
2023-01-28T21:11:51.125Z,16.06
2023-01-28T21:14:22.405Z,15.64
2023-01-28T21:16:48.923Z,16.09
2023-01-28T21:19:16.705Z,15.87
2023-01-28T21:21:45.967Z,16.33
2023-01-28T21:24:13.593Z,16.61
2023-01-28T21:26:42.487Z,16.38
2023-01-28T21:29:11.473Z,15.73
2023-01-28T21:31:39.490Z,15.82
2023-01-28T21:34:08.929Z,15.48
2023-01-28T21:36:36.688Z,15.57
2023-01-28T21:41:45.663Z,15.34
2023-01-28T21:44:19.681Z,15.76
2023-01-28T21:46:48.320Z,15.93
2023-01-28T21:49:15.009Z,16.10
2023-01-28T21:51:41.672Z,15.30
2023-01-28T21:54:12.450Z,15.69
2023-01-28T21:56:39.163Z,15.58
2023-01-28T21:59:07.846Z,14.98
2023-01-28T22:01:35.671Z,15.04
2023-01-28T22:04:02.122Z,15.49
2023-01-28T22:06:28.637Z,15.49
2023-01-28T22:08:56.217Z,15.30
2023-01-28T22:11:22.720Z,15.18
2023-01-28T22:13:51.442Z,15.27
2023-01-28T22:16:19.317Z,16.00
2023-01-28T22:18:45.804Z,16.51
2023-01-28T22:21:12.370Z,15.94
2023-01-28T22:23:45.602Z,17.69
2023-01-28T22:26:11.960Z,18.39
2023-01-28T22:28:38.617Z,17.75
2023-01-28T22:31:06.686Z,17.06
2023-01-28T22:33:33.170Z,18.11
2023-01-28T22:35:59.574Z,16.83
2023-01-28T22:38:25.974Z,16.70
2023-01-28T22:40:52.322Z,16.00
2023-01-28T22:43:18.905Z,15.69
2023-01-28T22:45:45.296Z,16.97
2023-01-28T22:48:11.738Z,16.44
2023-01-28T22:50:38.143Z,16.13
2023-01-28T22:53:04.515Z,15.33
2023-01-28T22:55:31.082Z,14.34
2023-01-28T22:57:57.473Z,14.40
2023-01-28T23:00:24.175Z,14.70
2023-01-28T23:02:52.405Z,15.33
2023-01-28T23:05:18.816Z,15.58
2023-01-28T23:07:45.278Z,15.05
2023-01-28T23:10:11.645Z,14.30
2023-01-28T23:15:19.333Z,16.28
2023-01-28T23:17:45.670Z,15.95
2023-01-28T23:20:11.988Z,15.78
2023-01-28T23:22:38.371Z,15.38
2023-01-28T23:25:04.711Z,15.92
2023-01-28T23:27:31.138Z,18.30
2023-01-28T23:29:57.499Z,20.20
2023-01-28T23:32:23.890Z,19.13
2023-01-28T23:34:50.253Z,15.94
2023-01-28T23:37:16.728Z,15.98
2023-01-28T23:39:43.079Z,15.17
2023-01-28T23:42:09.458Z,15.06
2023-01-28T23:44:35.822Z,21.91
2023-01-28T23:47:02.285Z,31.30
2023-01-28T23:49:28.803Z,17.85
2023-01-28T23:51:58.795Z,15.06
2023-01-28T23:54:25.184Z,14.40
2023-01-28T23:56:51.653Z,14.62
2023-01-28T23:59:18.015Z,15.73
